sensor_id;sensor_type;location;lat;lon;timestamp;P1;durP1;ratioP1;P2;durP2;ratioP2
65459;SDS011;52058;49.822;6.754;2023-04-15T00:02:14;4.10;;;2.28;;
65459;SDS011;52058;49.822;6.754;2023-04-15T00:04:42;4.53;;;2.22;;
65459;SDS011;52058;49.822;6.754;2023-04-15T00:07:09;6.30;;;2.47;;
65459;SDS011;52058;49.822;6.754;2023-04-15T00:09:37;5.57;;;2.60;;
65459;SDS011;52058;49.822;6.754;2023-04-15T00:12:04;4.35;;;2.60;;
65459;SDS011;52058;49.822;6.754;2023-04-15T00:14:32;4.90;;;2.83;;
65459;SDS011;52058;49.822;6.754;2023-04-15T00:16:59;4.18;;;2.55;;
65459;SDS011;52058;49.822;6.754;2023-04-15T00:19:26;5.35;;;3.00;;
65459;SDS011;52058;49.822;6.754;2023-04-15T00:21:52;4.25;;;2.40;;
65459;SDS011;52058;49.822;6.754;2023-04-15T00:24:19;3.33;;;2.45;;
65459;SDS011;52058;49.822;6.754;2023-04-15T00:26:47;4.63;;;3.08;;
65459;SDS011;52058;49.822;6.754;2023-04-15T00:29:14;2.95;;;2.50;;
65459;SDS011;52058;49.822;6.754;2023-04-15T00:31:40;6.75;;;2.50;;
65459;SDS011;52058;49.822;6.754;2023-04-15T00:34:07;3.40;;;2.50;;
65459;SDS011;52058;49.822;6.754;2023-04-15T00:36:33;5.47;;;2.70;;
65459;SDS011;52058;49.822;6.754;2023-04-15T00:39:00;4.50;;;2.83;;
65459;SDS011;52058;49.822;6.754;2023-04-15T00:41:27;6.47;;;3.35;;
65459;SDS011;52058;49.822;6.754;2023-04-15T00:43:55;5.47;;;2.97;;
65459;SDS011;52058;49.822;6.754;2023-04-15T00:46:22;4.65;;;2.88;;
65459;SDS011;52058;49.822;6.754;2023-04-15T00:48:49;7.25;;;2.78;;
65459;SDS011;52058;49.822;6.754;2023-04-15T00:51:16;6.28;;;2.70;;
65459;SDS011;52058;49.822;6.754;2023-04-15T00:53:44;6.20;;;3.10;;
65459;SDS011;52058;49.822;6.754;2023-04-15T00:56:11;3.95;;;2.50;;
65459;SDS011;52058;49.822;6.754;2023-04-15T00:58:37;3.25;;;2.10;;
65459;SDS011;52058;49.822;6.754;2023-04-15T01:01:05;6.55;;;2.60;;
65459;SDS011;52058;49.822;6.754;2023-04-15T01:03:32;4.60;;;2.83;;
65459;SDS011;52058;49.822;6.754;2023-04-15T01:05:59;7.38;;;3.20;;
65459;SDS011;52058;49.822;6.754;2023-04-15T01:08:26;11.38;;;5.88;;
65459;SDS011;52058;49.822;6.754;2023-04-15T01:10:53;8.10;;;3.67;;
65459;SDS011;52058;49.822;6.754;2023-04-15T01:13:21;5.78;;;2.92;;
65459;SDS011;52058;49.822;6.754;2023-04-15T01:15:49;7.95;;;3.13;;
65459;SDS011;52058;49.822;6.754;2023-04-15T01:18:18;5.35;;;3.00;;
65459;SDS011;52058;49.822;6.754;2023-04-15T01:20:45;3.90;;;2.75;;
65459;SDS011;52058;49.822;6.754;2023-04-15T01:23:12;5.72;;;2.95;;
65459;SDS011;52058;49.822;6.754;2023-04-15T01:25:40;5.28;;;3.10;;
65459;SDS011;52058;49.822;6.754;2023-04-15T01:28:07;5.53;;;2.42;;
65459;SDS011;52058;49.822;6.754;2023-04-15T01:30:35;5.00;;;2.67;;
65459;SDS011;52058;49.822;6.754;2023-04-15T01:33:02;5.18;;;2.83;;
65459;SDS011;52058;49.822;6.754;2023-04-15T01:35:28;8.32;;;2.53;;
65459;SDS011;52058;49.822;6.754;2023-04-15T01:37:55;3.67;;;2.42;;
65459;SDS011;52058;49.822;6.754;2023-04-15T01:40:30;4.22;;;2.38;;
65459;SDS011;52058;49.822;6.754;2023-04-15T01:42:58;4.90;;;2.92;;
65459;SDS011;52058;49.822;6.754;2023-04-15T01:45:25;5.38;;;3.10;;
65459;SDS011;52058;49.822;6.754;2023-04-15T01:47:52;3.28;;;2.08;;
65459;SDS011;52058;49.822;6.754;2023-04-15T01:50:18;3.92;;;2.47;;
65459;SDS011;52058;49.822;6.754;2023-04-15T01:52:45;4.75;;;2.70;;
65459;SDS011;52058;49.822;6.754;2023-04-15T01:55:12;5.72;;;2.60;;
65459;SDS011;52058;49.822;6.754;2023-04-15T01:57:39;6.00;;;2.25;;
65459;SDS011;52058;49.822;6.754;2023-04-15T02:00:08;5.53;;;2.30;;
65459;SDS011;52058;49.822;6.754;2023-04-15T02:02:35;6.80;;;2.83;;
65459;SDS011;52058;49.822;6.754;2023-04-15T02:05:02;5.72;;;2.28;;
65459;SDS011;52058;49.822;6.754;2023-04-15T02:07:29;5.22;;;2.85;;
65459;SDS011;52058;49.822;6.754;2023-04-15T02:09:56;4.10;;;2.58;;
65459;SDS011;52058;49.822;6.754;2023-04-15T02:12:23;5.50;;;2.80;;
65459;SDS011;52058;49.822;6.754;2023-04-15T02:14:50;4.40;;;2.20;;
65459;SDS011;52058;49.822;6.754;2023-04-15T02:17:17;3.95;;;2.75;;
65459;SDS011;52058;49.822;6.754;2023-04-15T02:19:44;6.93;;;3.08;;
65459;SDS011;52058;49.822;6.754;2023-04-15T02:22:12;6.32;;;3.00;;
65459;SDS011;52058;49.822;6.754;2023-04-15T02:24:42;4.25;;;2.60;;
65459;SDS011;52058;49.822;6.754;2023-04-15T02:27:10;3.78;;;2.42;;
65459;SDS011;52058;49.822;6.754;2023-04-15T02:29:36;3.90;;;2.08;;
65459;SDS011;52058;49.822;6.754;2023-04-15T02:32:03;4.75;;;2.42;;
65459;SDS011;52058;49.822;6.754;2023-04-15T02:34:31;5.75;;;2.38;;
65459;SDS011;52058;49.822;6.754;2023-04-15T02:36:58;2.75;;;2.47;;
65459;SDS011;52058;49.822;6.754;2023-04-15T02:39:25;3.60;;;2.30;;
65459;SDS011;52058;49.822;6.754;2023-04-15T02:41:51;3.42;;;2.30;;
65459;SDS011;52058;49.822;6.754;2023-04-15T02:44:19;4.18;;;2.15;;
65459;SDS011;52058;49.822;6.754;2023-04-15T02:46:47;3.40;;;2.30;;
65459;SDS011;52058;49.822;6.754;2023-04-15T02:49:16;4.60;;;2.63;;
65459;SDS011;52058;49.822;6.754;2023-04-15T02:51:44;3.53;;;2.03;;
65459;SDS011;52058;49.822;6.754;2023-04-15T02:54:13;4.47;;;1.88;;
65459;SDS011;52058;49.822;6.754;2023-04-15T02:56:40;4.30;;;2.30;;
65459;SDS011;52058;49.822;6.754;2023-04-15T02:59:06;5.22;;;2.38;;
65459;SDS011;52058;49.822;6.754;2023-04-15T03:01:33;3.22;;;2.30;;
65459;SDS011;52058;49.822;6.754;2023-04-15T03:03:59;3.35;;;2.35;;
65459;SDS011;52058;49.822;6.754;2023-04-15T03:06:26;4.70;;;2.30;;
65459;SDS011;52058;49.822;6.754;2023-04-15T03:08:54;4.15;;;2.78;;
65459;SDS011;52058;49.822;6.754;2023-04-15T03:11:20;3.90;;;2.35;;
65459;SDS011;52058;49.822;6.754;2023-04-15T03:13:47;6.25;;;2.60;;
65459;SDS011;52058;49.822;6.754;2023-04-15T03:16:14;4.60;;;2.55;;
65459;SDS011;52058;49.822;6.754;2023-04-15T03:18:41;3.42;;;2.50;;
65459;SDS011;52058;49.822;6.754;2023-04-15T03:21:07;4.10;;;2.45;;
65459;SDS011;52058;49.822;6.754;2023-04-15T03:23:34;3.60;;;2.40;;
65459;SDS011;52058;49.822;6.754;2023-04-15T03:26:02;4.72;;;2.50;;
65459;SDS011;52058;49.822;6.754;2023-04-15T03:28:28;4.40;;;2.60;;
65459;SDS011;52058;49.822;6.754;2023-04-15T03:30:55;3.38;;;2.15;;
65459;SDS011;52058;49.822;6.754;2023-04-15T03:33:22;2.78;;;2.13;;
65459;SDS011;52058;49.822;6.754;2023-04-15T03:35:49;3.25;;;2.25;;
65459;SDS011;52058;49.822;6.754;2023-04-15T03:38:16;3.28;;;2.28;;
65459;SDS011;52058;49.822;6.754;2023-04-15T03:40:42;3.45;;;2.05;;
65459;SDS011;52058;49.822;6.754;2023-04-15T03:43:12;4.78;;;2.50;;
65459;SDS011;52058;49.822;6.754;2023-04-15T03:45:38;4.88;;;2.25;;
65459;SDS011;52058;49.822;6.754;2023-04-15T03:48:05;4.45;;;2.60;;
65459;SDS011;52058;49.822;6.754;2023-04-15T03:50:31;3.00;;;2.20;;
65459;SDS011;52058;49.822;6.754;2023-04-15T03:52:58;4.35;;;2.38;;
65459;SDS011;52058;49.822;6.754;2023-04-15T03:55:24;4.05;;;2.63;;
65459;SDS011;52058;49.822;6.754;2023-04-15T03:57:51;3.65;;;2.17;;
65459;SDS011;52058;49.822;6.754;2023-04-15T04:00:19;3.35;;;2.00;;
65459;SDS011;52058;49.822;6.754;2023-04-15T04:02:46;3.13;;;2.40;;
65459;SDS011;52058;49.822;6.754;2023-04-15T04:05:12;3.78;;;2.10;;
65459;SDS011;52058;49.822;6.754;2023-04-15T04:07:39;3.65;;;2.20;;
65459;SDS011;52058;49.822;6.754;2023-04-15T04:10:06;5.60;;;2.10;;
65459;SDS011;52058;49.822;6.754;2023-04-15T04:12:33;3.67;;;2.50;;
65459;SDS011;52058;49.822;6.754;2023-04-15T04:15:00;4.00;;;2.20;;
65459;SDS011;52058;49.822;6.754;2023-04-15T04:17:28;7.43;;;2.53;;
65459;SDS011;52058;49.822;6.754;2023-04-15T04:19:55;3.63;;;2.10;;
65459;SDS011;52058;49.822;6.754;2023-04-15T04:22:21;4.47;;;2.20;;
65459;SDS011;52058;49.822;6.754;2023-04-15T04:24:48;4.65;;;2.67;;
65459;SDS011;52058;49.822;6.754;2023-04-15T04:27:15;6.15;;;2.47;;
65459;SDS011;52058;49.822;6.754;2023-04-15T04:29:42;4.28;;;2.47;;
65459;SDS011;52058;49.822;6.754;2023-04-15T04:32:08;4.32;;;2.55;;
65459;SDS011;52058;49.822;6.754;2023-04-15T04:34:37;3.00;;;2.03;;
65459;SDS011;52058;49.822;6.754;2023-04-15T04:37:03;3.67;;;2.20;;
65459;SDS011;52058;49.822;6.754;2023-04-15T04:39:30;3.97;;;1.70;;
65459;SDS011;52058;49.822;6.754;2023-04-15T04:41:57;5.03;;;2.20;;
65459;SDS011;52058;49.822;6.754;2023-04-15T04:44:24;4.88;;;2.17;;
65459;SDS011;52058;49.822;6.754;2023-04-15T04:46:51;2.47;;;1.88;;
65459;SDS011;52058;49.822;6.754;2023-04-15T04:49:17;4.03;;;2.13;;
65459;SDS011;52058;49.822;6.754;2023-04-15T04:51:45;3.63;;;2.10;;
65459;SDS011;52058;49.822;6.754;2023-04-15T04:54:13;2.13;;;1.77;;
65459;SDS011;52058;49.822;6.754;2023-04-15T04:56:40;2.95;;;2.22;;
65459;SDS011;52058;49.822;6.754;2023-04-15T04:59:06;3.70;;;2.10;;
65459;SDS011;52058;49.822;6.754;2023-04-15T05:01:33;3.22;;;1.95;;
65459;SDS011;52058;49.822;6.754;2023-04-15T05:04:00;4.35;;;2.28;;
65459;SDS011;52058;49.822;6.754;2023-04-15T05:06:28;3.75;;;2.00;;
65459;SDS011;52058;49.822;6.754;2023-04-15T05:08:57;2.85;;;1.80;;
65459;SDS011;52058;49.822;6.754;2023-04-15T05:11:23;2.58;;;1.85;;
65459;SDS011;52058;49.822;6.754;2023-04-15T05:13:50;2.40;;;1.83;;
65459;SDS011;52058;49.822;6.754;2023-04-15T05:16:16;3.13;;;1.90;;
65459;SDS011;52058;49.822;6.754;2023-04-15T05:18:43;5.43;;;2.15;;
65459;SDS011;52058;49.822;6.754;2023-04-15T05:21:10;5.20;;;2.08;;
65459;SDS011;52058;49.822;6.754;2023-04-15T05:23:37;3.92;;;2.03;;
65459;SDS011;52058;49.822;6.754;2023-04-15T05:26:05;3.30;;;2.03;;
65459;SDS011;52058;49.822;6.754;2023-04-15T05:28:31;4.53;;;2.10;;
65459;SDS011;52058;49.822;6.754;2023-04-15T05:30:58;2.95;;;1.98;;
65459;SDS011;52058;49.822;6.754;2023-04-15T05:33:25;3.25;;;1.75;;
65459;SDS011;52058;49.822;6.754;2023-04-15T05:35:52;3.05;;;2.10;;
65459;SDS011;52058;49.822;6.754;2023-04-15T05:38:19;3.65;;;2.10;;
65459;SDS011;52058;49.822;6.754;2023-04-15T05:40:46;3.38;;;1.88;;
65459;SDS011;52058;49.822;6.754;2023-04-15T05:43:14;2.80;;;2.08;;
65459;SDS011;52058;49.822;6.754;2023-04-15T05:45:40;3.38;;;1.90;;
65459;SDS011;52058;49.822;6.754;2023-04-15T05:48:07;4.72;;;2.00;;
65459;SDS011;52058;49.822;6.754;2023-04-15T05:50:33;2.97;;;2.10;;
65459;SDS011;52058;49.822;6.754;2023-04-15T05:53:00;3.75;;;2.40;;
65459;SDS011;52058;49.822;6.754;2023-04-15T05:55:27;5.13;;;2.20;;
65459;SDS011;52058;49.822;6.754;2023-04-15T05:57:53;3.00;;;2.22;;
65459;SDS011;52058;49.822;6.754;2023-04-15T06:00:21;8.05;;;2.33;;
65459;SDS011;52058;49.822;6.754;2023-04-15T06:02:48;5.20;;;2.25;;
65459;SDS011;52058;49.822;6.754;2023-04-15T06:05:15;5.03;;;1.95;;
65459;SDS011;52058;49.822;6.754;2023-04-15T06:07:42;3.80;;;2.10;;
65459;SDS011;52058;49.822;6.754;2023-04-15T06:10:09;3.45;;;2.22;;
65459;SDS011;52058;49.822;6.754;2023-04-15T06:12:35;5.18;;;2.47;;
65459;SDS011;52058;49.822;6.754;2023-04-15T06:15:02;5.80;;;2.47;;
65459;SDS011;52058;49.822;6.754;2023-04-15T06:17:32;7.15;;;2.30;;
65459;SDS011;52058;49.822;6.754;2023-04-15T06:19:58;5.93;;;2.47;;
65459;SDS011;52058;49.822;6.754;2023-04-15T06:22:25;6.03;;;2.10;;
65459;SDS011;52058;49.822;6.754;2023-04-15T06:24:51;5.22;;;2.42;;
65459;SDS011;52058;49.822;6.754;2023-04-15T06:27:18;7.40;;;2.00;;
65459;SDS011;52058;49.822;6.754;2023-04-15T06:29:45;4.78;;;1.98;;
65459;SDS011;52058;49.822;6.754;2023-04-15T06:32:11;3.25;;;1.90;;
65459;SDS011;52058;49.822;6.754;2023-04-15T06:34:39;4.15;;;2.15;;
65459;SDS011;52058;49.822;6.754;2023-04-15T06:37:06;4.13;;;1.88;;
65459;SDS011;52058;49.822;6.754;2023-04-15T06:39:34;3.25;;;1.80;;
65459;SDS011;52058;49.822;6.754;2023-04-15T06:42:00;3.47;;;2.03;;
65459;SDS011;52058;49.822;6.754;2023-04-15T06:44:28;3.15;;;1.92;;
65459;SDS011;52058;49.822;6.754;2023-04-15T06:46:54;5.93;;;2.20;;
65459;SDS011;52058;49.822;6.754;2023-04-15T06:49:21;8.82;;;2.00;;
65459;SDS011;52058;49.822;6.754;2023-04-15T06:51:49;4.18;;;2.10;;
65459;SDS011;52058;49.822;6.754;2023-04-15T06:54:16;5.28;;;1.85;;
65459;SDS011;52058;49.822;6.754;2023-04-15T06:56:43;4.50;;;2.00;;
65459;SDS011;52058;49.822;6.754;2023-04-15T06:59:10;3.20;;;1.80;;
65459;SDS011;52058;49.822;6.754;2023-04-15T07:01:37;4.28;;;2.15;;
65459;SDS011;52058;49.822;6.754;2023-04-15T07:04:03;3.75;;;1.90;;
65459;SDS011;52058;49.822;6.754;2023-04-15T07:06:30;4.53;;;1.75;;
65459;SDS011;52058;49.822;6.754;2023-04-15T07:08:59;2.35;;;1.55;;
65459;SDS011;52058;49.822;6.754;2023-04-15T07:11:26;4.43;;;1.70;;
65459;SDS011;52058;49.822;6.754;2023-04-15T07:13:52;3.50;;;1.70;;
65459;SDS011;52058;49.822;6.754;2023-04-15T07:16:19;6.93;;;2.00;;
65459;SDS011;52058;49.822;6.754;2023-04-15T07:18:45;5.20;;;2.35;;
65459;SDS011;52058;49.822;6.754;2023-04-15T07:21:12;8.05;;;2.33;;
65459;SDS011;52058;49.822;6.754;2023-04-15T07:23:39;6.85;;;2.40;;
65459;SDS011;52058;49.822;6.754;2023-04-15T07:26:07;4.55;;;2.72;;
65459;SDS011;52058;49.822;6.754;2023-04-15T07:28:35;5.07;;;2.92;;
65459;SDS011;52058;49.822;6.754;2023-04-15T07:31:01;3.47;;;2.17;;
65459;SDS011;52058;49.822;6.754;2023-04-15T07:33:28;3.13;;;2.17;;
65459;SDS011;52058;49.822;6.754;2023-04-15T07:35:55;3.78;;;1.95;;
65459;SDS011;52058;49.822;6.754;2023-04-15T07:38:22;6.65;;;2.05;;
65459;SDS011;52058;49.822;6.754;2023-04-15T07:40:48;8.05;;;1.70;;
65459;SDS011;52058;49.822;6.754;2023-04-15T07:43:16;3.95;;;2.28;;
65459;SDS011;52058;49.822;6.754;2023-04-15T07:45:44;5.32;;;1.65;;
65459;SDS011;52058;49.822;6.754;2023-04-15T07:48:11;3.97;;;1.80;;
65459;SDS011;52058;49.822;6.754;2023-04-15T07:50:37;4.18;;;1.80;;
65459;SDS011;52058;49.822;6.754;2023-04-15T07:53:04;6.15;;;1.85;;
65459;SDS011;52058;49.822;6.754;2023-04-15T07:55:32;4.85;;;1.70;;
65459;SDS011;52058;49.822;6.754;2023-04-15T07:57:59;3.30;;;1.70;;
65459;SDS011;52058;49.822;6.754;2023-04-15T08:00:27;2.95;;;1.60;;
65459;SDS011;52058;49.822;6.754;2023-04-15T08:02:55;4.97;;;1.63;;
65459;SDS011;52058;49.822;6.754;2023-04-15T08:05:23;2.47;;;1.50;;
65459;SDS011;52058;49.822;6.754;2023-04-15T08:07:50;4.55;;;1.50;;
65459;SDS011;52058;49.822;6.754;2023-04-15T08:10:17;2.28;;;1.50;;
65459;SDS011;52058;49.822;6.754;2023-04-15T08:12:45;5.15;;;2.00;;
65459;SDS011;52058;49.822;6.754;2023-04-15T08:15:13;3.58;;;1.88;;
65459;SDS011;52058;49.822;6.754;2023-04-15T08:17:42;4.72;;;1.70;;
65459;SDS011;52058;49.822;6.754;2023-04-15T08:20:09;3.20;;;1.40;;
65459;SDS011;52058;49.822;6.754;2023-04-15T08:22:37;4.22;;;1.85;;
65459;SDS011;52058;49.822;6.754;2023-04-15T08:25:04;3.38;;;2.15;;
65459;SDS011;52058;49.822;6.754;2023-04-15T08:27:31;3.70;;;2.40;;
65459;SDS011;52058;49.822;6.754;2023-04-15T08:29:58;5.40;;;2.80;;
65459;SDS011;52058;49.822;6.754;2023-04-15T08:32:25;6.53;;;2.53;;
65459;SDS011;52058;49.822;6.754;2023-04-15T08:34:53;4.95;;;2.67;;
65459;SDS011;52058;49.822;6.754;2023-04-15T08:37:20;5.25;;;2.28;;
65459;SDS011;52058;49.822;6.754;2023-04-15T08:39:48;3.13;;;2.30;;
65459;SDS011;52058;49.822;6.754;2023-04-15T08:42:16;5.63;;;2.20;;
65459;SDS011;52058;49.822;6.754;2023-04-15T08:44:48;4.93;;;2.45;;
65459;SDS011;52058;49.822;6.754;2023-04-15T08:47:16;4.35;;;1.65;;
65459;SDS011;52058;49.822;6.754;2023-04-15T08:49:46;2.67;;;1.38;;
65459;SDS011;52058;49.822;6.754;2023-04-15T08:52:19;4.18;;;1.30;;
65459;SDS011;52058;49.822;6.754;2023-04-15T08:54:46;3.03;;;1.13;;
65459;SDS011;52058;49.822;6.754;2023-04-15T08:57:13;2.38;;;1.35;;
65459;SDS011;52058;49.822;6.754;2023-04-15T08:59:41;1.63;;;1.27;;
65459;SDS011;52058;49.822;6.754;2023-04-15T09:02:09;4.90;;;1.45;;
65459;SDS011;52058;49.822;6.754;2023-04-15T09:04:36;3.45;;;1.23;;
65459;SDS011;52058;49.822;6.754;2023-04-15T09:07:03;4.75;;;1.50;;
65459;SDS011;52058;49.822;6.754;2023-04-15T09:09:31;4.38;;;1.33;;
65459;SDS011;52058;49.822;6.754;2023-04-15T09:12:00;3.45;;;1.92;;
65459;SDS011;52058;49.822;6.754;2023-04-15T09:14:27;4.03;;;1.15;;
65459;SDS011;52058;49.822;6.754;2023-04-15T09:16:56;1.83;;;1.27;;
65459;SDS011;52058;49.822;6.754;2023-04-15T09:19:23;2.88;;;1.13;;
65459;SDS011;52058;49.822;6.754;2023-04-15T09:21:51;4.35;;;1.30;;
65459;SDS011;52058;49.822;6.754;2023-04-15T09:24:19;3.03;;;1.30;;
65459;SDS011;52058;49.822;6.754;2023-04-15T09:26:47;2.80;;;1.20;;
65459;SDS011;52058;49.822;6.754;2023-04-15T09:29:18;4.00;;;1.10;;
65459;SDS011;52058;49.822;6.754;2023-04-15T09:31:45;3.20;;;1.17;;
65459;SDS011;52058;49.822;6.754;2023-04-15T09:34:11;4.00;;;1.40;;
65459;SDS011;52058;49.822;6.754;2023-04-15T09:36:50;5.65;;;1.20;;
65459;SDS011;52058;49.822;6.754;2023-04-15T09:39:18;2.35;;;1.20;;
65459;SDS011;52058;49.822;6.754;2023-04-15T09:41:46;4.38;;;1.38;;
65459;SDS011;52058;49.822;6.754;2023-04-15T09:44:22;2.20;;;1.00;;
65459;SDS011;52058;49.822;6.754;2023-04-15T09:46:50;1.60;;;1.00;;
65459;SDS011;52058;49.822;6.754;2023-04-15T09:49:16;2.30;;;1.00;;
65459;SDS011;52058;49.822;6.754;2023-04-15T09:51:43;2.53;;;1.10;;
65459;SDS011;52058;49.822;6.754;2023-04-15T09:54:10;6.60;;;1.40;;
65459;SDS011;52058;49.822;6.754;2023-04-15T09:56:37;11.55;;;1.40;;
65459;SDS011;52058;49.822;6.754;2023-04-15T09:59:07;1.75;;;0.93;;
65459;SDS011;52058;49.822;6.754;2023-04-15T10:01:34;2.83;;;1.20;;
65459;SDS011;52058;49.822;6.754;2023-04-15T10:04:01;3.58;;;1.20;;
65459;SDS011;52058;49.822;6.754;2023-04-15T10:06:29;5.15;;;1.10;;
65459;SDS011;52058;49.822;6.754;2023-04-15T10:08:56;3.72;;;1.10;;
65459;SDS011;52058;49.822;6.754;2023-04-15T10:11:23;3.08;;;1.05;;
65459;SDS011;52058;49.822;6.754;2023-04-15T10:13:53;2.83;;;1.08;;
65459;SDS011;52058;49.822;6.754;2023-04-15T10:16:24;2.55;;;1.13;;
65459;SDS011;52058;49.822;6.754;2023-04-15T10:18:54;2.50;;;1.30;;
65459;SDS011;52058;49.822;6.754;2023-04-15T10:21:22;2.63;;;1.40;;
65459;SDS011;52058;49.822;6.754;2023-04-15T10:23:49;3.47;;;1.10;;
65459;SDS011;52058;49.822;6.754;2023-04-15T10:26:17;3.03;;;1.10;;
65459;SDS011;52058;49.822;6.754;2023-04-15T10:28:43;4.47;;;0.98;;
65459;SDS011;52058;49.822;6.754;2023-04-15T10:31:11;1.95;;;0.80;;
65459;SDS011;52058;49.822;6.754;2023-04-15T10:33:44;8.32;;;3.40;;
65459;SDS011;52058;49.822;6.754;2023-04-15T10:36:12;3.50;;;1.17;;
65459;SDS011;52058;49.822;6.754;2023-04-15T10:38:40;3.35;;;1.02;;
65459;SDS011;52058;49.822;6.754;2023-04-15T10:41:15;3.70;;;1.10;;
65459;SDS011;52058;49.822;6.754;2023-04-15T10:43:47;3.58;;;1.20;;
65459;SDS011;52058;49.822;6.754;2023-04-15T10:46:16;4.65;;;1.27;;
65459;SDS011;52058;49.822;6.754;2023-04-15T10:48:49;2.85;;;1.42;;
65459;SDS011;52058;49.822;6.754;2023-04-15T10:51:25;2.63;;;1.40;;
65459;SDS011;52058;49.822;6.754;2023-04-15T10:53:55;4.57;;;1.38;;
65459;SDS011;52058;49.822;6.754;2023-04-15T10:56:22;4.63;;;1.52;;
65459;SDS011;52058;49.822;6.754;2023-04-15T10:58:49;2.88;;;1.55;;
65459;SDS011;52058;49.822;6.754;2023-04-15T11:01:16;3.35;;;1.42;;
65459;SDS011;52058;49.822;6.754;2023-04-15T11:03:45;2.95;;;1.70;;
65459;SDS011;52058;49.822;6.754;2023-04-15T11:06:14;5.88;;;2.08;;
65459;SDS011;52058;49.822;6.754;2023-04-15T11:08:53;3.05;;;1.50;;
65459;SDS011;52058;49.822;6.754;2023-04-15T11:11:22;6.63;;;2.15;;
65459;SDS011;52058;49.822;6.754;2023-04-15T11:14:15;4.25;;;1.80;;
65459;SDS011;52058;49.822;6.754;2023-04-15T11:16:42;3.38;;;1.60;;
65459;SDS011;52058;49.822;6.754;2023-04-15T11:19:09;3.67;;;1.70;;
65459;SDS011;52058;49.822;6.754;2023-04-15T11:21:37;5.10;;;1.80;;
65459;SDS011;52058;49.822;6.754;2023-04-15T11:24:04;4.82;;;1.70;;
65459;SDS011;52058;49.822;6.754;2023-04-15T11:26:30;4.05;;;1.73;;
65459;SDS011;52058;49.822;6.754;2023-04-15T11:28:57;3.83;;;1.58;;
65459;SDS011;52058;49.822;6.754;2023-04-15T11:31:27;2.85;;;1.30;;
65459;SDS011;52058;49.822;6.754;2023-04-15T11:33:54;2.85;;;1.60;;
65459;SDS011;52058;49.822;6.754;2023-04-15T11:36:23;4.35;;;1.40;;
65459;SDS011;52058;49.822;6.754;2023-04-15T11:38:52;2.95;;;1.50;;
65459;SDS011;52058;49.822;6.754;2023-04-15T11:41:19;6.60;;;1.60;;
65459;SDS011;52058;49.822;6.754;2023-04-15T11:43:47;3.05;;;1.50;;
65459;SDS011;52058;49.822;6.754;2023-04-15T11:46:14;2.70;;;1.30;;
65459;SDS011;52058;49.822;6.754;2023-04-15T11:48:41;2.65;;;1.25;;
65459;SDS011;52058;49.822;6.754;2023-04-15T11:51:09;2.97;;;1.13;;
65459;SDS011;52058;49.822;6.754;2023-04-15T11:53:38;2.65;;;1.20;;
65459;SDS011;52058;49.822;6.754;2023-04-15T11:56:06;3.83;;;1.25;;
65459;SDS011;52058;49.822;6.754;2023-04-15T11:58:35;3.88;;;1.50;;
65459;SDS011;52058;49.822;6.754;2023-04-15T12:01:03;3.90;;;1.40;;
65459;SDS011;52058;49.822;6.754;2023-04-15T12:03:34;2.60;;;1.58;;
65459;SDS011;52058;49.822;6.754;2023-04-15T12:06:03;1.17;;;1.02;;
65459;SDS011;52058;49.822;6.754;2023-04-15T12:11:36;6.38;;;1.90;;
65459;SDS011;52058;49.822;6.754;2023-04-15T12:14:06;9.85;;;6.07;;
65459;SDS011;52058;49.822;6.754;2023-04-15T12:16:42;2.33;;;1.40;;
65459;SDS011;52058;49.822;6.754;2023-04-15T12:19:10;1.15;;;1.05;;
65459;SDS011;52058;49.822;6.754;2023-04-15T12:21:38;2.83;;;1.58;;
65459;SDS011;52058;49.822;6.754;2023-04-15T12:24:07;3.50;;;2.05;;
65459;SDS011;52058;49.822;6.754;2023-04-15T12:26:37;4.63;;;3.42;;
65459;SDS011;52058;49.822;6.754;2023-04-15T12:29:09;1.77;;;1.40;;
65459;SDS011;52058;49.822;6.754;2023-04-15T12:31:45;5.85;;;3.42;;
65459;SDS011;52058;49.822;6.754;2023-04-15T12:34:13;2.53;;;1.70;;
65459;SDS011;52058;49.822;6.754;2023-04-15T12:36:40;3.92;;;1.73;;
65459;SDS011;52058;49.822;6.754;2023-04-15T12:39:06;2.28;;;1.25;;
65459;SDS011;52058;49.822;6.754;2023-04-15T12:41:33;2.65;;;1.45;;
65459;SDS011;52058;49.822;6.754;2023-04-15T12:44:01;2.00;;;1.20;;
65459;SDS011;52058;49.822;6.754;2023-04-15T12:46:27;1.77;;;1.13;;
65459;SDS011;52058;49.822;6.754;2023-04-15T12:48:54;2.63;;;1.73;;
65459;SDS011;52058;49.822;6.754;2023-04-15T12:51:21;1.92;;;1.35;;
65459;SDS011;52058;49.822;6.754;2023-04-15T12:53:48;2.55;;;1.42;;
65459;SDS011;52058;49.822;6.754;2023-04-15T12:56:15;4.55;;;1.60;;
65459;SDS011;52058;49.822;6.754;2023-04-15T12:58:42;2.50;;;1.50;;
65459;SDS011;52058;49.822;6.754;2023-04-15T13:01:10;3.08;;;1.83;;
65459;SDS011;52058;49.822;6.754;2023-04-15T13:03:36;2.83;;;1.55;;
65459;SDS011;52058;49.822;6.754;2023-04-15T13:06:03;1.50;;;1.27;;
65459;SDS011;52058;49.822;6.754;2023-04-15T13:08:30;1.90;;;1.50;;
65459;SDS011;52058;49.822;6.754;2023-04-15T13:10:56;3.70;;;1.88;;
65459;SDS011;52058;49.822;6.754;2023-04-15T13:13:23;2.42;;;1.95;;
65459;SDS011;52058;49.822;6.754;2023-04-15T13:15:50;2.50;;;2.30;;
65459;SDS011;52058;49.822;6.754;2023-04-15T13:18:18;3.35;;;1.67;;
65459;SDS011;52058;49.822;6.754;2023-04-15T13:20:45;1.70;;;1.60;;
65459;SDS011;52058;49.822;6.754;2023-04-15T13:23:11;2.30;;;1.80;;
65459;SDS011;52058;49.822;6.754;2023-04-15T13:25:38;2.35;;;1.98;;
65459;SDS011;52058;49.822;6.754;2023-04-15T13:28:05;2.13;;;1.92;;
65459;SDS011;52058;49.822;6.754;2023-04-15T13:30:31;2.85;;;1.85;;
65459;SDS011;52058;49.822;6.754;2023-04-15T13:32:58;3.15;;;1.90;;
65459;SDS011;52058;49.822;6.754;2023-04-15T13:35:26;2.35;;;1.80;;
65459;SDS011;52058;49.822;6.754;2023-04-15T13:37:52;2.95;;;1.80;;
65459;SDS011;52058;49.822;6.754;2023-04-15T13:40:19;2.35;;;1.50;;
65459;SDS011;52058;49.822;6.754;2023-04-15T13:42:46;2.38;;;1.38;;
65459;SDS011;52058;49.822;6.754;2023-04-15T13:45:12;2.15;;;1.38;;
65459;SDS011;52058;49.822;6.754;2023-04-15T13:47:40;1.55;;;1.23;;
65459;SDS011;52058;49.822;6.754;2023-04-15T13:50:07;2.35;;;0.80;;
65459;SDS011;52058;49.822;6.754;2023-04-15T13:52:35;2.30;;;1.08;;
65459;SDS011;52058;49.822;6.754;2023-04-15T13:55:02;2.80;;;1.10;;
65459;SDS011;52058;49.822;6.754;2023-04-15T13:57:29;1.30;;;1.10;;
65459;SDS011;52058;49.822;6.754;2023-04-15T13:59:56;1.38;;;1.27;;
65459;SDS011;52058;49.822;6.754;2023-04-15T14:02:23;1.80;;;1.45;;
65459;SDS011;52058;49.822;6.754;2023-04-15T14:04:49;1.85;;;1.35;;
65459;SDS011;52058;49.822;6.754;2023-04-15T14:07:16;2.42;;;1.73;;
65459;SDS011;52058;49.822;6.754;2023-04-15T14:09:44;1.70;;;1.50;;
65459;SDS011;52058;49.822;6.754;2023-04-15T14:12:12;2.40;;;1.73;;
65459;SDS011;52058;49.822;6.754;2023-04-15T14:14:39;1.60;;;1.50;;
65459;SDS011;52058;49.822;6.754;2023-04-15T14:17:05;3.80;;;2.28;;
65459;SDS011;52058;49.822;6.754;2023-04-15T14:19:33;3.90;;;1.85;;
65459;SDS011;52058;49.822;6.754;2023-04-15T14:22:00;2.38;;;1.80;;
65459;SDS011;52058;49.822;6.754;2023-04-15T14:24:27;2.92;;;1.92;;
65459;SDS011;52058;49.822;6.754;2023-04-15T14:26:55;2.33;;;2.10;;
65459;SDS011;52058;49.822;6.754;2023-04-15T14:29:22;4.38;;;1.92;;
65459;SDS011;52058;49.822;6.754;2023-04-15T14:31:49;4.70;;;2.20;;
65459;SDS011;52058;49.822;6.754;2023-04-15T14:34:16;2.70;;;1.83;;
65459;SDS011;52058;49.822;6.754;2023-04-15T14:36:42;2.22;;;1.80;;
65459;SDS011;52058;49.822;6.754;2023-04-15T14:39:10;2.80;;;1.40;;
65459;SDS011;52058;49.822;6.754;2023-04-15T14:41:36;1.73;;;1.63;;
65459;SDS011;52058;49.822;6.754;2023-04-15T14:44:04;2.25;;;1.58;;
65459;SDS011;52058;49.822;6.754;2023-04-15T14:46:33;1.70;;;1.60;;
65459;SDS011;52058;49.822;6.754;2023-04-15T14:48:59;3.35;;;2.03;;
65459;SDS011;52058;49.822;6.754;2023-04-15T14:51:26;2.40;;;2.20;;
65459;SDS011;52058;49.822;6.754;2023-04-15T14:53:53;2.35;;;2.17;;